createdAt,value
2022-11-29T00:01:23.472Z,2.85
2022-11-29T00:03:50.790Z,2.87
2022-11-29T00:06:23.332Z,2.87
2022-11-29T00:08:50.570Z,2.89
2022-11-29T00:11:38.911Z,2.91
2022-11-29T00:14:08.001Z,2.85
2022-11-29T00:16:36.487Z,2.84
2022-11-29T00:19:03.665Z,2.83
2022-11-29T00:21:30.406Z,2.75
2022-11-29T00:23:57.259Z,2.77
2022-11-29T00:26:24.412Z,2.70
2022-11-29T00:28:51.797Z,2.64
2022-11-29T00:31:27.934Z,2.56
2022-11-29T00:33:54.657Z,2.53
2022-11-29T00:36:21.459Z,2.49
2022-11-29T00:38:48.188Z,2.44
2022-11-29T00:41:15.118Z,2.41
2022-11-29T00:43:42.083Z,2.34
2022-11-29T00:46:09.744Z,2.33
2022-11-29T00:48:37.186Z,2.29
2022-11-29T00:51:05.280Z,2.31
2022-11-29T00:53:33.279Z,2.31
2022-11-29T00:55:59.946Z,2.26
2022-11-29T00:58:26.820Z,2.27
2022-11-29T01:00:54.242Z,2.25
2022-11-29T01:03:21.440Z,2.19
2022-11-29T01:05:48.726Z,2.14
2022-11-29T01:08:15.851Z,2.13
2022-11-29T01:10:42.627Z,2.06
2022-11-29T01:13:09.972Z,2.09
2022-11-29T01:15:37.064Z,2.14
2022-11-29T01:18:03.950Z,2.13
2022-11-29T01:20:30.708Z,2.12
2022-11-29T01:22:57.526Z,2.08
2022-11-29T01:25:24.424Z,2.12
2022-11-29T01:27:51.124Z,2.13
2022-11-29T01:30:17.900Z,2.12
2022-11-29T01:32:44.646Z,2.08
2022-11-29T01:35:11.373Z,2.03
2022-11-29T01:37:38.175Z,2.02
2022-11-29T01:40:05.549Z,2.01
2022-11-29T01:42:32.243Z,2.02
2022-11-29T01:45:19.643Z,2.02
2022-11-29T01:47:47.653Z,2.03
2022-11-29T01:50:14.769Z,2.07
2022-11-29T01:52:42.049Z,2.10
2022-11-29T01:55:10.190Z,2.06
2022-11-29T01:57:40.259Z,2.06
2022-11-29T02:00:08.779Z,2.08
2022-11-29T02:02:47.287Z,2.11
2022-11-29T02:05:16.889Z,2.13
2022-11-29T02:07:46.355Z,2.07
2022-11-29T02:10:15.834Z,2.04
2022-11-29T02:13:06.269Z,2.04
2022-11-29T02:15:50.484Z,2.02
2022-11-29T02:18:48.752Z,2.17
2022-11-29T02:21:45.202Z,2.14
2022-11-29T02:24:45.452Z,2.05
2022-11-29T02:27:42.967Z,2.05
2022-11-29T02:30:27.804Z,2.04
2022-11-29T02:33:03.458Z,2.02
2022-11-29T02:35:52.044Z,1.97
2022-11-29T02:38:43.066Z,2.01
2022-11-29T02:41:41.693Z,1.97
2022-11-29T02:44:08.532Z,2.01
2022-11-29T02:46:35.199Z,2.05
2022-11-29T02:49:20.830Z,2.06
2022-11-29T02:51:55.702Z,2.01
2022-11-29T02:54:49.241Z,1.93
2022-11-29T02:57:21.779Z,1.82
2022-11-29T03:00:00.079Z,1.86
2022-11-29T03:03:00.150Z,1.85
2022-11-29T03:05:42.909Z,1.92
2022-11-29T03:08:15.490Z,1.97
2022-11-29T03:10:49.789Z,1.97
2022-11-29T03:13:44.136Z,1.85
2022-11-29T03:16:37.184Z,1.85
2022-11-29T03:19:32.892Z,1.87
2022-11-29T03:22:17.779Z,1.84
2022-11-29T03:24:54.721Z,1.79
2022-11-29T03:27:28.835Z,1.79
2022-11-29T03:30:00.649Z,1.78
2022-11-29T03:32:43.023Z,1.75
2022-11-29T03:35:15.868Z,1.70
2022-11-29T03:37:55.462Z,1.64
2022-11-29T03:40:50.137Z,1.70
2022-11-29T03:43:41.722Z,1.70
2022-11-29T03:46:35.269Z,1.59
2022-11-29T03:49:35.757Z,1.53
2022-11-29T03:52:24.798Z,1.54
2022-11-29T03:55:03.286Z,1.43
2022-11-29T03:57:51.371Z,1.36
2022-11-29T04:00:19.007Z,1.34
2022-11-29T04:03:04.341Z,1.35
2022-11-29T04:05:36.804Z,1.33
2022-11-29T04:08:17.828Z,1.31
2022-11-29T04:11:15.525Z,1.26
2022-11-29T04:14:13.955Z,1.26
2022-11-29T04:17:18.180Z,1.27
2022-11-29T04:19:59.938Z,1.25
2022-11-29T04:22:33.157Z,1.29
2022-11-29T04:25:23.050Z,1.36
2022-11-29T04:28:26.920Z,1.45
2022-11-29T04:31:11.464Z,1.34
2022-11-29T04:34:23.242Z,1.42
2022-11-29T04:37:39.539Z,1.46
2022-11-29T04:40:33.902Z,1.44
2022-11-29T04:43:16.051Z,1.45
2022-11-29T04:45:42.684Z,1.41
2022-11-29T04:48:40.158Z,1.40
2022-11-29T04:51:25.855Z,1.41
2022-11-29T04:54:09.348Z,1.30
2022-11-29T04:57:24.081Z,1.35
2022-11-29T04:59:53.717Z,1.30
2022-11-29T05:02:54.247Z,1.26
2022-11-29T05:05:42.602Z,1.23
2022-11-29T05:08:38.764Z,1.29
2022-11-29T05:11:05.392Z,1.31
2022-11-29T05:13:58.719Z,1.27
2022-11-29T05:16:46.567Z,1.30
2022-11-29T05:19:34.359Z,1.29
2022-11-29T05:22:34.328Z,1.23
2022-11-29T05:25:42.323Z,1.22
2022-11-29T05:28:25.989Z,1.22
2022-11-29T05:31:26.903Z,1.21
2022-11-29T05:34:03.796Z,1.18
2022-11-29T05:36:45.295Z,1.19
2022-11-29T05:39:20.977Z,1.22
2022-11-29T05:42:01.487Z,1.29
2022-11-29T05:44:37.275Z,1.23
2022-11-29T05:47:10.264Z,1.20
2022-11-29T05:50:04.149Z,1.23
2022-11-29T05:52:50.719Z,1.21
2022-11-29T05:55:41.099Z,1.21
2022-11-29T05:58:41.745Z,1.27
2022-11-29T06:01:20.528Z,1.29
2022-11-29T06:04:10.322Z,1.29
2022-11-29T06:06:42.973Z,1.30
2022-11-29T06:09:13.715Z,1.21
2022-11-29T06:11:55.063Z,1.19
2022-11-29T06:14:49.916Z,1.29
2022-11-29T06:17:25.604Z,1.21
2022-11-29T06:20:26.514Z,1.20
2022-11-29T06:23:31.055Z,1.11
2022-11-29T06:26:09.747Z,1.13
2022-11-29T06:28:47.124Z,1.14
2022-11-29T06:31:38.663Z,1.14
2022-11-29T06:34:20.676Z,1.09
2022-11-29T06:37:15.677Z,1.15
2022-11-29T06:39:42.730Z,1.14
2022-11-29T06:42:09.434Z,1.09
2022-11-29T06:44:36.504Z,1.11
2022-11-29T06:47:08.969Z,1.08
2022-11-29T06:49:49.334Z,1.11
2022-11-29T06:52:34.837Z,1.16
2022-11-29T06:55:08.237Z,1.22
2022-11-29T06:57:52.810Z,1.18
2022-11-29T07:00:28.404Z,1.19
2022-11-29T07:02:55.258Z,1.12
2022-11-29T07:05:31.953Z,1.15
2022-11-29T07:08:04.247Z,1.16
2022-11-29T07:10:33.455Z,1.23
2022-11-29T07:13:00.586Z,1.20
2022-11-29T07:15:28.256Z,1.25
2022-11-29T07:18:24.222Z,1.32
2022-11-29T07:21:18.045Z,1.35
2022-11-29T07:24:05.075Z,1.42
2022-11-29T07:26:55.159Z,1.44
2022-11-29T07:30:02.524Z,1.50
2022-11-29T07:32:47.302Z,1.50
2022-11-29T07:35:29.536Z,1.48
2022-11-29T07:37:57.583Z,1.52
2022-11-29T07:40:37.559Z,1.51
2022-11-29T07:43:38.779Z,1.56
2022-11-29T07:46:05.761Z,1.55
2022-11-29T07:48:32.505Z,1.70
2022-11-29T07:51:00.749Z,1.71
2022-11-29T07:53:27.588Z,1.78
2022-11-29T07:55:54.821Z,1.81
2022-11-29T07:58:21.677Z,1.73
2022-11-29T08:00:48.407Z,1.66
2022-11-29T08:03:15.193Z,1.73
2022-11-29T08:05:46.292Z,1.67
2022-11-29T08:08:13.567Z,1.71
2022-11-29T08:10:40.384Z,1.75
2022-11-29T08:13:07.116Z,1.75
2022-11-29T08:15:37.005Z,1.74
2022-11-29T08:18:04.017Z,1.74
2022-11-29T08:20:30.599Z,1.74
2022-11-29T08:23:00.467Z,1.83
2022-11-29T08:25:28.242Z,1.75
2022-11-29T08:27:56.110Z,1.84
2022-11-29T08:30:23.588Z,1.78
2022-11-29T08:32:51.775Z,1.87
2022-11-29T08:35:20.210Z,1.99
2022-11-29T08:37:47.158Z,2.13
2022-11-29T08:40:15.103Z,2.12
2022-11-29T08:42:41.869Z,2.03
2022-11-29T08:45:09.934Z,1.96
2022-11-29T08:47:38.070Z,2.03
2022-11-29T08:50:16.524Z,1.94
2022-11-29T08:53:07.261Z,2.04
2022-11-29T08:55:40.358Z,2.03
2022-11-29T08:58:12.392Z,2.15
2022-11-29T09:00:39.633Z,2.20
2022-11-29T09:03:25.895Z,2.21
2022-11-29T09:05:53.716Z,2.31
2022-11-29T09:08:20.486Z,2.42
2022-11-29T09:10:47.589Z,2.41
2022-11-29T09:13:14.325Z,2.43
2022-11-29T09:15:43.356Z,2.52
2022-11-29T09:18:10.326Z,2.58
2022-11-29T09:20:37.093Z,2.67
2022-11-29T09:23:04.399Z,2.62
2022-11-29T09:25:31.112Z,2.62
2022-11-29T09:28:01.844Z,2.69
2022-11-29T09:30:32.017Z,2.76
2022-11-29T09:33:05.130Z,2.87
2022-11-29T09:35:33.030Z,2.78
2022-11-29T09:38:00.316Z,2.77
2022-11-29T09:40:52.768Z,2.79
2022-11-29T09:43:38.081Z,2.78
2022-11-29T09:46:27.537Z,2.74
2022-11-29T09:49:29.514Z,2.76
2022-11-29T09:52:13.642Z,2.91
2022-11-29T09:55:10.176Z,2.79
2022-11-29T09:57:38.623Z,2.77
2022-11-29T10:00:14.806Z,2.78
2022-11-29T10:02:47.902Z,2.87
2022-11-29T10:05:24.200Z,2.90
2022-11-29T10:07:55.696Z,2.86
2022-11-29T10:10:40.591Z,2.87
2022-11-29T10:13:16.768Z,2.88
2022-11-29T10:15:45.781Z,2.84
2022-11-29T10:18:32.466Z,2.78
2022-11-29T10:21:06.895Z,2.66
2022-11-29T10:23:42.633Z,2.67
2022-11-29T10:26:11.964Z,2.83
2022-11-29T10:28:45.027Z,2.88
2022-11-29T10:31:43.992Z,2.86
2022-11-29T10:34:18.894Z,2.88
2022-11-29T10:37:02.769Z,2.87
2022-11-29T10:39:37.337Z,2.93
2022-11-29T10:42:25.970Z,3.05
2022-11-29T10:44:52.788Z,2.98
2022-11-29T10:47:19.460Z,2.96
2022-11-29T10:49:46.211Z,2.99
2022-11-29T10:52:23.118Z,2.97
2022-11-29T10:54:57.881Z,3.01
2022-11-29T10:57:24.607Z,2.98
2022-11-29T11:00:09.901Z,3.06
2022-11-29T11:02:37.806Z,2.98
2022-11-29T11:05:13.341Z,2.93
2022-11-29T11:07:40.713Z,2.88
2022-11-29T11:10:37.368Z,2.87
2022-11-29T11:13:21.010Z,2.93
2022-11-29T11:15:48.024Z,2.89
2022-11-29T11:18:24.201Z,2.82
2022-11-29T11:20:57.186Z,2.84
2022-11-29T11:23:27.407Z,2.90
2022-11-29T11:26:00.965Z,2.97
2022-11-29T11:28:32.348Z,2.99
2022-11-29T11:31:05.007Z,2.97
2022-11-29T11:33:35.285Z,2.94
2022-11-29T11:36:03.869Z,2.99
2022-11-29T11:38:31.596Z,3.06
2022-11-29T11:41:20.459Z,3.08
2022-11-29T11:44:14.966Z,3.11
2022-11-29T11:46:48.312Z,3.02
2022-11-29T11:49:32.525Z,2.99
2022-11-29T11:52:00.879Z,3.06
2022-11-29T11:54:29.527Z,3.06
2022-11-29T11:56:56.657Z,3.18
2022-11-29T11:59:26.675Z,3.15
2022-11-29T12:01:53.262Z,3.11
2022-11-29T12:04:25.753Z,3.12
2022-11-29T12:07:01.857Z,3.23
2022-11-29T12:09:33.897Z,3.15
2022-11-29T12:12:19.384Z,3.15
2022-11-29T12:15:00.715Z,3.20
2022-11-29T12:17:36.737Z,3.19
2022-11-29T12:20:24.986Z,3.25
2022-11-29T12:23:12.595Z,3.13
2022-11-29T12:25:52.494Z,3.02
2022-11-29T12:28:21.146Z,3.11
2022-11-29T12:30:57.171Z,3.07
2022-11-29T12:33:49.749Z,3.01
2022-11-29T12:36:22.286Z,3.08
2022-11-29T12:39:03.662Z,3.01
2022-11-29T12:41:42.337Z,3.00
2022-11-29T12:44:40.342Z,3.11
2022-11-29T12:47:37.909Z,3.13
2022-11-29T12:50:26.602Z,3.04
2022-11-29T12:53:11.307Z,2.98
2022-11-29T12:55:51.896Z,2.94
2022-11-29T12:58:32.075Z,2.96
2022-11-29T13:01:01.853Z,3.10
2022-11-29T13:03:49.990Z,3.06
2022-11-29T13:06:19.669Z,3.07
2022-11-29T13:09:05.032Z,3.06
2022-11-29T13:11:48.324Z,2.94
2022-11-29T13:14:42.163Z,2.94
2022-11-29T13:17:14.970Z,2.90
2022-11-29T13:19:53.722Z,2.93
2022-11-29T13:22:26.570Z,2.93
2022-11-29T13:25:13.062Z,3.02
2022-11-29T13:27:46.317Z,2.99
2022-11-29T13:30:16.551Z,3.03
2022-11-29T13:33:05.319Z,3.02
2022-11-29T13:35:49.032Z,2.99
2022-11-29T13:38:25.075Z,2.92
2022-11-29T13:41:02.278Z,2.98
2022-11-29T13:43:39.349Z,3.04
2022-11-29T13:46:44.035Z,3.11
2022-11-29T13:49:57.249Z,3.15
2022-11-29T13:52:41.005Z,3.17
2022-11-29T13:55:11.438Z,3.16
2022-11-29T13:58:14.759Z,3.12
2022-11-29T14:00:44.143Z,3.13
2022-11-29T14:03:24.151Z,3.08
2022-11-29T14:05:52.203Z,3.02
2022-11-29T14:09:02.363Z,3.01
2022-11-29T14:11:43.044Z,3.00
2022-11-29T14:14:26.440Z,2.96
2022-11-29T14:16:58.949Z,3.02
2022-11-29T14:19:34.235Z,3.04
2022-11-29T14:22:07.250Z,3.02
2022-11-29T14:24:36.631Z,2.97
2022-11-29T14:27:06.012Z,2.97
2022-11-29T14:29:51.078Z,2.95
2022-11-29T14:32:46.194Z,2.93
2022-11-29T14:35:13.275Z,2.91
2022-11-29T14:37:47.542Z,2.89
2022-11-29T14:40:23.458Z,2.84
2022-11-29T14:42:51.049Z,2.91
2022-11-29T14:45:36.039Z,3.01
2022-11-29T14:48:03.410Z,3.09
2022-11-29T14:50:39.801Z,3.04
2022-11-29T14:53:27.540Z,3.00
2022-11-29T14:56:29.051Z,2.91
2022-11-29T14:59:33.084Z,2.92
2022-11-29T15:02:07.757Z,2.95
2022-11-29T15:04:36.621Z,2.99
2022-11-29T15:07:05.895Z,3.01
2022-11-29T15:09:34.109Z,2.99
2022-11-29T15:12:17.144Z,2.96
2022-11-29T15:15:10.212Z,2.94
2022-11-29T15:17:45.903Z,2.96
2022-11-29T15:20:46.305Z,2.96
2022-11-29T15:23:18.505Z,2.93
2022-11-29T15:25:53.661Z,2.93
2022-11-29T15:28:26.759Z,2.88
2022-11-29T15:31:06.279Z,2.95
2022-11-29T15:33:36.157Z,2.97
2022-11-29T15:36:08.573Z,2.93
2022-11-29T15:38:44.448Z,2.84
2022-11-29T15:41:27.435Z,2.81
2022-11-29T15:44:02.543Z,2.79
2022-11-29T15:46:32.149Z,2.81
2022-11-29T15:49:25.071Z,2.74
2022-11-29T15:52:08.408Z,2.70
2022-11-29T15:54:41.234Z,2.77
2022-11-29T15:57:11.106Z,2.70
2022-11-29T15:59:48.915Z,2.60
2022-11-29T16:02:24.340Z,2.55
2022-11-29T16:04:55.899Z,2.53
2022-11-29T16:07:24.669Z,2.49
2022-11-29T16:10:14.969Z,2.43
2022-11-29T16:12:59.235Z,2.45
2022-11-29T16:15:25.869Z,2.45
2022-11-29T16:17:52.600Z,2.42
2022-11-29T16:20:24.333Z,2.36
2022-11-29T16:23:13.281Z,2.45
2022-11-29T16:26:06.369Z,2.33
2022-11-29T16:28:36.372Z,2.28
2022-11-29T16:31:04.877Z,2.27
2022-11-29T16:33:32.350Z,2.29
2022-11-29T16:36:23.983Z,2.25
2022-11-29T16:38:54.236Z,2.28
2022-11-29T16:41:32.343Z,2.26
2022-11-29T16:44:03.252Z,2.20
2022-11-29T16:46:35.965Z,2.22
2022-11-29T16:49:35.915Z,2.19
2022-11-29T16:52:04.326Z,2.23
2022-11-29T16:54:34.077Z,2.16
2022-11-29T16:57:05.408Z,2.16
2022-11-29T16:59:32.570Z,2.16
2022-11-29T17:01:59.439Z,2.10
2022-11-29T17:04:26.616Z,2.13
2022-11-29T17:06:55.143Z,2.10
2022-11-29T17:09:27.915Z,2.16
2022-11-29T17:11:55.702Z,2.15
2022-11-29T17:14:23.106Z,2.27
2022-11-29T17:16:50.581Z,2.21
2022-11-29T17:19:18.535Z,2.18
2022-11-29T17:21:45.548Z,2.22
2022-11-29T17:24:15.825Z,2.21
2022-11-29T17:26:43.503Z,2.15
2022-11-29T17:29:11.918Z,2.17
2022-11-29T17:31:38.992Z,2.19
2022-11-29T17:34:06.516Z,2.17
2022-11-29T17:36:33.455Z,2.12
2022-11-29T17:39:00.878Z,2.13
2022-11-29T17:41:28.701Z,2.17
2022-11-29T17:43:56.679Z,2.17
2022-11-29T17:46:27.561Z,2.16
2022-11-29T17:48:55.718Z,2.16
2022-11-29T17:54:11.275Z,2.19
2022-11-29T17:56:37.961Z,2.26
2022-11-29T17:59:05.216Z,2.29
2022-11-29T18:01:34.717Z,2.35
2022-11-29T18:04:03.207Z,2.27
2022-11-29T18:06:35.254Z,2.22
2022-11-29T18:09:06.083Z,2.21
2022-11-29T18:11:48.013Z,2.19
2022-11-29T18:14:19.188Z,2.22
2022-11-29T18:16:46.029Z,2.24
2022-11-29T18:19:15.807Z,2.27
2022-11-29T18:21:42.851Z,2.23
2022-11-29T18:24:10.311Z,2.21
2022-11-29T18:26:39.174Z,2.31
2022-11-29T18:29:06.688Z,2.27
2022-11-29T18:31:36.373Z,2.42
2022-11-29T18:34:11.909Z,2.45
2022-11-29T18:36:44.966Z,2.56
2022-11-29T18:39:20.079Z,2.50
2022-11-29T18:41:48.717Z,2.50
2022-11-29T18:44:17.492Z,2.42
2022-11-29T18:46:45.433Z,2.46
2022-11-29T18:49:14.801Z,2.48
2022-11-29T18:51:44.780Z,2.41
2022-11-29T18:54:12.918Z,2.48
2022-11-29T18:56:40.114Z,2.44
2022-11-29T18:59:10.476Z,2.44
2022-11-29T19:01:41.305Z,2.51
2022-11-29T19:04:11.025Z,2.46
2022-11-29T19:06:39.934Z,2.44
2022-11-29T19:09:11.973Z,2.50
2022-11-29T19:11:38.964Z,2.56
2022-11-29T19:14:11.445Z,2.55
2022-11-29T19:16:43.470Z,2.55
2022-11-29T19:19:11.139Z,2.48
2022-11-29T19:21:39.915Z,2.44
2022-11-29T19:24:13.933Z,2.55
2022-11-29T19:26:41.748Z,2.58
2022-11-29T19:29:08.405Z,2.58
2022-11-29T19:31:35.111Z,2.54
2022-11-29T19:34:01.793Z,2.57
2022-11-29T19:36:30.631Z,2.51
2022-11-29T19:39:00.127Z,2.49
2022-11-29T19:41:32.457Z,2.58
2022-11-29T19:44:01.991Z,2.49
2022-11-29T19:46:35.274Z,2.48
2022-11-29T19:49:03.501Z,2.41
2022-11-29T19:51:30.955Z,2.52
2022-11-29T19:54:00.340Z,2.61
2022-11-29T19:56:28.266Z,2.68
2022-11-29T19:58:55.364Z,2.68
2022-11-29T20:01:37.905Z,2.66
2022-11-29T20:04:07.498Z,2.73
2022-11-29T20:06:34.696Z,2.64
2022-11-29T20:09:02.196Z,2.62
2022-11-29T20:11:29.225Z,2.54
2022-11-29T20:14:01.205Z,2.58
2022-11-29T20:16:29.663Z,2.62
2022-11-29T20:18:56.998Z,2.63
2022-11-29T20:21:27.325Z,2.66
2022-11-29T20:23:59.505Z,2.70
2022-11-29T20:26:27.724Z,2.70
2022-11-29T20:28:54.632Z,2.69
2022-11-29T20:31:23.312Z,2.73
2022-11-29T20:33:52.869Z,2.77
2022-11-29T20:36:38.613Z,2.62
2022-11-29T20:39:26.327Z,2.60
2022-11-29T20:41:52.925Z,2.49
2022-11-29T20:44:44.284Z,2.51
2022-11-29T20:47:22.511Z,2.56
2022-11-29T20:49:49.414Z,2.54
2022-11-29T20:52:37.598Z,2.67
2022-11-29T20:55:05.050Z,2.66
2022-11-29T20:57:31.856Z,2.63
2022-11-29T21:00:00.058Z,2.64
2022-11-29T21:02:26.703Z,2.67
2022-11-29T21:04:53.364Z,2.67
2022-11-29T21:07:20.139Z,2.69
2022-11-29T21:09:46.851Z,2.66
2022-11-29T21:12:13.974Z,2.67
2022-11-29T21:14:40.955Z,2.57
2022-11-29T21:17:08.858Z,2.51
2022-11-29T21:19:36.406Z,2.54
2022-11-29T21:22:26.474Z,2.63
2022-11-29T21:25:12.166Z,2.67
2022-11-29T21:27:39.166Z,2.77
2022-11-29T21:30:07.104Z,2.74
2022-11-29T21:32:34.326Z,2.69
2022-11-29T21:35:00.985Z,2.76
2022-11-29T21:37:30.821Z,2.63
2022-11-29T21:39:57.696Z,2.60
2022-11-29T21:42:24.494Z,2.70
2022-11-29T21:44:51.155Z,2.68
2022-11-29T21:47:17.816Z,2.76
2022-11-29T21:49:45.012Z,2.77
2022-11-29T21:52:11.718Z,2.70
2022-11-29T21:54:39.301Z,2.70
2022-11-29T21:57:06.160Z,2.73
2022-11-29T21:59:32.914Z,2.74
2022-11-29T22:01:59.845Z,2.67
2022-11-29T22:04:26.869Z,2.62
2022-11-29T22:06:53.585Z,2.73
2022-11-29T22:09:20.491Z,2.64
2022-11-29T22:11:47.166Z,2.68
2022-11-29T22:14:18.885Z,2.72
2022-11-29T22:16:54.250Z,2.70
2022-11-29T22:19:22.216Z,2.70
2022-11-29T22:21:52.040Z,2.65
2022-11-29T22:24:21.608Z,2.65
2022-11-29T22:26:49.478Z,2.67
2022-11-29T22:29:16.668Z,2.68
2022-11-29T22:31:45.727Z,2.59
2022-11-29T22:34:13.191Z,2.59
2022-11-29T22:36:41.003Z,2.50
2022-11-29T22:39:09.120Z,2.54
2022-11-29T22:41:38.355Z,2.54
2022-11-29T22:44:05.633Z,2.60
2022-11-29T22:46:33.015Z,2.56
2022-11-29T22:49:00.647Z,2.63
2022-11-29T22:51:32.383Z,2.57
2022-11-29T22:54:01.449Z,2.57
2022-11-29T22:56:31.448Z,2.59
2022-11-29T22:58:58.283Z,2.54
2022-11-29T23:01:27.331Z,2.61
2022-11-29T23:03:56.502Z,2.55
2022-11-29T23:06:25.359Z,2.54
2022-11-29T23:08:54.589Z,2.55
2022-11-29T23:11:26.880Z,2.59
2022-11-29T23:13:54.389Z,2.52
2022-11-29T23:16:24.619Z,2.62
2022-11-29T23:18:52.422Z,2.51
2022-11-29T23:21:25.589Z,2.44
2022-11-29T23:23:56.332Z,2.43
2022-11-29T23:26:26.441Z,2.46
2022-11-29T23:28:54.177Z,2.50
2022-11-29T23:31:21.803Z,2.47
2022-11-29T23:33:48.952Z,2.44
2022-11-29T23:36:16.896Z,2.54
2022-11-29T23:38:43.958Z,2.55
2022-11-29T23:41:12.898Z,2.51
2022-11-29T23:43:40.953Z,2.63
2022-11-29T23:46:15.556Z,2.64
2022-11-29T23:48:42.981Z,2.61
2022-11-29T23:51:09.644Z,2.62
2022-11-29T23:53:36.577Z,2.52
2022-11-29T23:56:06.273Z,2.60
2022-11-29T23:58:34.028Z,2.63
